sensor_id;sensor_type;location;lat;lon;timestamp;P1;durP1;ratioP1;P2;durP2;ratioP2
12770;SDS011;6449;47.666;9.160;2023-08-17T00:03:51;3.33;;;2.78;;
12770;SDS011;6449;47.666;9.160;2023-08-17T00:08:46;3.80;;;3.03;;
12770;SDS011;6449;47.666;9.160;2023-08-17T00:13:39;4.70;;;2.80;;
12770;SDS011;6449;47.666;9.160;2023-08-17T00:18:34;3.28;;;2.90;;
12770;SDS011;6449;47.666;9.160;2023-08-17T00:23:27;4.28;;;2.95;;
12770;SDS011;6449;47.666;9.160;2023-08-17T00:28:22;2.72;;;2.53;;
12770;SDS011;6449;47.666;9.160;2023-08-17T00:33:15;7.40;;;3.30;;
12770;SDS011;6449;47.666;9.160;2023-08-17T00:38:08;3.72;;;3.30;;
12770;SDS011;6449;47.666;9.160;2023-08-17T00:43:02;3.13;;;2.88;;
12770;SDS011;6449;47.666;9.160;2023-08-17T00:47:57;3.05;;;2.80;;
12770;SDS011;6449;47.666;9.160;2023-08-17T00:52:52;3.75;;;3.15;;
12770;SDS011;6449;47.666;9.160;2023-08-17T00:57:47;3.75;;;2.70;;
12770;SDS011;6449;47.666;9.160;2023-08-17T01:02:41;3.78;;;2.38;;
12770;SDS011;6449;47.666;9.160;2023-08-17T01:07:37;4.68;;;3.33;;
12770;SDS011;6449;47.666;9.160;2023-08-17T01:12:30;3.88;;;2.88;;
12770;SDS011;6449;47.666;9.160;2023-08-17T01:17:26;4.03;;;2.75;;
12770;SDS011;6449;47.666;9.160;2023-08-17T01:22:26;4.30;;;3.13;;
12770;SDS011;6449;47.666;9.160;2023-08-17T01:27:29;4.43;;;2.85;;
12770;SDS011;6449;47.666;9.160;2023-08-17T01:32:37;3.22;;;2.90;;
12770;SDS011;6449;47.666;9.160;2023-08-17T01:37:40;3.08;;;2.88;;
12770;SDS011;6449;47.666;9.160;2023-08-17T01:42:37;3.00;;;2.70;;
12770;SDS011;6449;47.666;9.160;2023-08-17T01:47:32;3.20;;;2.88;;
12770;SDS011;6449;47.666;9.160;2023-08-17T01:52:27;3.45;;;2.88;;
12770;SDS011;6449;47.666;9.160;2023-08-17T01:57:21;3.25;;;2.80;;
12770;SDS011;6449;47.666;9.160;2023-08-17T02:02:16;2.97;;;2.78;;
12770;SDS011;6449;47.666;9.160;2023-08-17T02:07:09;3.38;;;3.08;;
12770;SDS011;6449;47.666;9.160;2023-08-17T02:12:03;4.32;;;3.35;;
12770;SDS011;6449;47.666;9.160;2023-08-17T02:16:59;3.88;;;3.00;;
12770;SDS011;6449;47.666;9.160;2023-08-17T02:21:54;3.72;;;2.85;;
12770;SDS011;6449;47.666;9.160;2023-08-17T02:26:47;3.10;;;2.83;;
12770;SDS011;6449;47.666;9.160;2023-08-17T02:31:40;4.72;;;3.50;;
12770;SDS011;6449;47.666;9.160;2023-08-17T02:36:34;3.50;;;3.20;;
12770;SDS011;6449;47.666;9.160;2023-08-17T02:41:28;3.53;;;2.90;;
12770;SDS011;6449;47.666;9.160;2023-08-17T02:46:24;3.60;;;3.30;;
12770;SDS011;6449;47.666;9.160;2023-08-17T02:51:17;4.05;;;3.20;;
12770;SDS011;6449;47.666;9.160;2023-08-17T02:56:11;4.03;;;3.30;;
12770;SDS011;6449;47.666;9.160;2023-08-17T03:01:05;4.18;;;3.30;;
12770;SDS011;6449;47.666;9.160;2023-08-17T03:05:59;5.30;;;3.70;;
12770;SDS011;6449;47.666;9.160;2023-08-17T03:10:53;4.40;;;3.40;;
12770;SDS011;6449;47.666;9.160;2023-08-17T03:15:46;4.63;;;3.47;;
12770;SDS011;6449;47.666;9.160;2023-08-17T03:20:41;5.60;;;3.40;;
12770;SDS011;6449;47.666;9.160;2023-08-17T03:25:36;3.83;;;3.17;;
12770;SDS011;6449;47.666;9.160;2023-08-17T03:30:30;3.70;;;3.40;;
12770;SDS011;6449;47.666;9.160;2023-08-17T03:35:23;4.50;;;2.90;;
12770;SDS011;6449;47.666;9.160;2023-08-17T03:40:18;3.90;;;3.42;;
12770;SDS011;6449;47.666;9.160;2023-08-17T03:45:11;4.72;;;3.60;;
12770;SDS011;6449;47.666;9.160;2023-08-17T03:50:05;3.67;;;3.35;;
12770;SDS011;6449;47.666;9.160;2023-08-17T03:54:59;3.75;;;3.30;;
12770;SDS011;6449;47.666;9.160;2023-08-17T03:59:54;4.40;;;3.90;;
12770;SDS011;6449;47.666;9.160;2023-08-17T04:04:47;3.80;;;3.42;;
12770;SDS011;6449;47.666;9.160;2023-08-17T04:09:43;4.50;;;3.83;;
12770;SDS011;6449;47.666;9.160;2023-08-17T04:14:36;5.60;;;4.18;;
12770;SDS011;6449;47.666;9.160;2023-08-17T04:19:31;4.65;;;3.65;;
12770;SDS011;6449;47.666;9.160;2023-08-17T04:24:25;6.82;;;5.07;;
12770;SDS011;6449;47.666;9.160;2023-08-17T04:29:18;9.43;;;6.43;;
12770;SDS011;6449;47.666;9.160;2023-08-17T04:34:14;7.88;;;4.47;;
12770;SDS011;6449;47.666;9.160;2023-08-17T04:39:09;8.13;;;4.38;;
12770;SDS011;6449;47.666;9.160;2023-08-17T04:44:02;4.40;;;4.00;;
12770;SDS011;6449;47.666;9.160;2023-08-17T04:48:56;4.43;;;4.03;;
12770;SDS011;6449;47.666;9.160;2023-08-17T04:53:50;6.30;;;4.30;;
12770;SDS011;6449;47.666;9.160;2023-08-17T04:58:44;5.65;;;3.88;;
12770;SDS011;6449;47.666;9.160;2023-08-17T05:03:38;4.30;;;3.72;;
12770;SDS011;6449;47.666;9.160;2023-08-17T05:08:32;5.20;;;3.67;;
12770;SDS011;6449;47.666;9.160;2023-08-17T05:13:25;4.93;;;4.00;;
12770;SDS011;6449;47.666;9.160;2023-08-17T05:18:20;4.80;;;4.25;;
12770;SDS011;6449;47.666;9.160;2023-08-17T05:23:13;5.95;;;3.85;;
12770;SDS011;6449;47.666;9.160;2023-08-17T05:28:07;5.05;;;3.78;;
12770;SDS011;6449;47.666;9.160;2023-08-17T05:33:00;4.65;;;3.90;;
12770;SDS011;6449;47.666;9.160;2023-08-17T05:37:55;6.75;;;4.72;;
12770;SDS011;6449;47.666;9.160;2023-08-17T05:42:48;6.65;;;4.93;;
12770;SDS011;6449;47.666;9.160;2023-08-17T05:47:41;5.75;;;4.13;;
12770;SDS011;6449;47.666;9.160;2023-08-17T05:52:37;5.47;;;4.97;;
12770;SDS011;6449;47.666;9.160;2023-08-17T05:57:37;5.68;;;5.13;;
12770;SDS011;6449;47.666;9.160;2023-08-17T06:02:30;9.23;;;5.35;;
12770;SDS011;6449;47.666;9.160;2023-08-17T06:07:23;6.28;;;5.68;;
12770;SDS011;6449;47.666;9.160;2023-08-17T06:12:17;6.22;;;5.63;;
12770;SDS011;6449;47.666;9.160;2023-08-17T06:17:12;6.22;;;5.40;;
12770;SDS011;6449;47.666;9.160;2023-08-17T06:22:05;5.72;;;5.03;;
12770;SDS011;6449;47.666;9.160;2023-08-17T06:26:59;7.07;;;4.93;;
12770;SDS011;6449;47.666;9.160;2023-08-17T06:31:52;8.50;;;4.72;;
12770;SDS011;6449;47.666;9.160;2023-08-17T06:36:57;5.40;;;4.40;;
12770;SDS011;6449;47.666;9.160;2023-08-17T06:41:52;5.22;;;4.50;;
12770;SDS011;6449;47.666;9.160;2023-08-17T06:46:45;5.30;;;4.80;;
12770;SDS011;6449;47.666;9.160;2023-08-17T06:51:39;5.50;;;4.93;;
12770;SDS011;6449;47.666;9.160;2023-08-17T06:56:33;6.32;;;4.20;;
12770;SDS011;6449;47.666;9.160;2023-08-17T07:01:27;7.97;;;5.00;;
12770;SDS011;6449;47.666;9.160;2023-08-17T07:06:20;5.50;;;5.00;;
12770;SDS011;6449;47.666;9.160;2023-08-17T07:11:14;6.55;;;4.93;;
12770;SDS011;6449;47.666;9.160;2023-08-17T07:16:09;5.18;;;4.65;;
12770;SDS011;6449;47.666;9.160;2023-08-17T07:21:02;8.82;;;4.20;;
12770;SDS011;6449;47.666;9.160;2023-08-17T07:25:55;5.45;;;4.78;;
12770;SDS011;6449;47.666;9.160;2023-08-17T07:30:49;6.78;;;5.13;;
12770;SDS011;6449;47.666;9.160;2023-08-17T07:35:43;5.00;;;4.53;;
12770;SDS011;6449;47.666;9.160;2023-08-17T07:40:37;5.45;;;4.32;;
12770;SDS011;6449;47.666;9.160;2023-08-17T07:45:30;3.75;;;3.45;;
12770;SDS011;6449;47.666;9.160;2023-08-17T07:50:24;4.43;;;3.80;;
12770;SDS011;6449;47.666;9.160;2023-08-17T07:55:18;3.88;;;3.17;;
12770;SDS011;6449;47.666;9.160;2023-08-17T08:00:12;5.25;;;4.20;;
12770;SDS011;6449;47.666;9.160;2023-08-17T08:05:07;6.50;;;4.30;;
12770;SDS011;6449;47.666;9.160;2023-08-17T08:10:01;5.00;;;4.10;;
12770;SDS011;6449;47.666;9.160;2023-08-17T08:14:56;6.03;;;4.07;;
12770;SDS011;6449;47.666;9.160;2023-08-17T08:19:51;5.72;;;3.85;;
12770;SDS011;6449;47.666;9.160;2023-08-17T08:24:45;5.25;;;4.75;;
12770;SDS011;6449;47.666;9.160;2023-08-17T08:29:39;5.97;;;4.43;;
12770;SDS011;6449;47.666;9.160;2023-08-17T08:34:33;8.05;;;5.72;;
12770;SDS011;6449;47.666;9.160;2023-08-17T08:39:27;6.35;;;4.45;;
12770;SDS011;6449;47.666;9.160;2023-08-17T08:44:20;7.03;;;5.25;;
12770;SDS011;6449;47.666;9.160;2023-08-17T08:49:16;7.18;;;4.13;;
12770;SDS011;6449;47.666;9.160;2023-08-17T08:54:18;8.20;;;4.90;;
12770;SDS011;6449;47.666;9.160;2023-08-17T08:59:14;5.90;;;4.22;;
12770;SDS011;6449;47.666;9.160;2023-08-17T09:04:09;6.82;;;4.13;;
12770;SDS011;6449;47.666;9.160;2023-08-17T09:09:03;3.83;;;3.40;;
12770;SDS011;6449;47.666;9.160;2023-08-17T09:14:01;6.10;;;3.88;;
12770;SDS011;6449;47.666;9.160;2023-08-17T09:18:55;7.95;;;4.13;;
12770;SDS011;6449;47.666;9.160;2023-08-17T09:23:52;4.25;;;3.13;;
12770;SDS011;6449;47.666;9.160;2023-08-17T09:28:50;7.85;;;3.72;;
12770;SDS011;6449;47.666;9.160;2023-08-17T09:33:48;3.50;;;2.97;;
12770;SDS011;6449;47.666;9.160;2023-08-17T09:38:42;5.95;;;3.60;;
12770;SDS011;6449;47.666;9.160;2023-08-17T09:43:36;3.63;;;3.10;;
12770;SDS011;6449;47.666;9.160;2023-08-17T09:48:29;4.97;;;3.17;;
12770;SDS011;6449;47.666;9.160;2023-08-17T09:53:25;3.85;;;3.55;;
12770;SDS011;6449;47.666;9.160;2023-08-17T09:58:19;4.75;;;4.28;;
12770;SDS011;6449;47.666;9.160;2023-08-17T10:03:13;3.95;;;3.55;;
12770;SDS011;6449;47.666;9.160;2023-08-17T10:08:09;4.20;;;3.70;;
12770;SDS011;6449;47.666;9.160;2023-08-17T10:13:07;5.28;;;3.90;;
12770;SDS011;6449;47.666;9.160;2023-08-17T10:18:06;4.95;;;3.50;;
12770;SDS011;6449;47.666;9.160;2023-08-17T10:23:08;4.00;;;3.30;;
12770;SDS011;6449;47.666;9.160;2023-08-17T10:28:09;3.40;;;3.10;;
12770;SDS011;6449;47.666;9.160;2023-08-17T10:33:03;3.72;;;3.30;;
12770;SDS011;6449;47.666;9.160;2023-08-17T10:37:59;3.22;;;2.92;;
12770;SDS011;6449;47.666;9.160;2023-08-17T10:43:00;3.20;;;3.00;;
12770;SDS011;6449;47.666;9.160;2023-08-17T10:53:20;3.55;;;3.08;;
12770;SDS011;6449;47.666;9.160;2023-08-17T10:58:14;3.78;;;2.83;;
12770;SDS011;6449;47.666;9.160;2023-08-17T11:03:08;4.75;;;3.25;;
12770;SDS011;6449;47.666;9.160;2023-08-17T11:08:11;3.83;;;3.40;;
12770;SDS011;6449;47.666;9.160;2023-08-17T11:13:15;3.40;;;3.10;;
12770;SDS011;6449;47.666;9.160;2023-08-17T11:18:08;3.25;;;2.95;;
12770;SDS011;6449;47.666;9.160;2023-08-17T11:23:03;4.68;;;3.20;;
12770;SDS011;6449;47.666;9.160;2023-08-17T11:27:59;4.45;;;3.40;;
12770;SDS011;6449;47.666;9.160;2023-08-17T11:32:53;5.03;;;3.80;;
12770;SDS011;6449;47.666;9.160;2023-08-17T11:37:48;3.80;;;2.97;;
12770;SDS011;6449;47.666;9.160;2023-08-17T11:42:41;3.90;;;3.28;;
12770;SDS011;6449;47.666;9.160;2023-08-17T11:47:37;4.22;;;3.83;;
12770;SDS011;6449;47.666;9.160;2023-08-17T11:52:32;4.10;;;3.33;;
12770;SDS011;6449;47.666;9.160;2023-08-17T11:57:27;4.30;;;3.15;;
12770;SDS011;6449;47.666;9.160;2023-08-17T12:02:22;4.85;;;3.40;;
12770;SDS011;6449;47.666;9.160;2023-08-17T12:07:19;3.00;;;2.70;;
12770;SDS011;6449;47.666;9.160;2023-08-17T12:12:17;9.98;;;7.45;;
12770;SDS011;6449;47.666;9.160;2023-08-17T12:17:13;4.35;;;3.90;;
12770;SDS011;6449;47.666;9.160;2023-08-17T12:22:08;4.03;;;3.63;;
12770;SDS011;6449;47.666;9.160;2023-08-17T12:27:03;4.85;;;3.90;;
12770;SDS011;6449;47.666;9.160;2023-08-17T12:31:58;3.95;;;3.65;;
12770;SDS011;6449;47.666;9.160;2023-08-17T12:36:54;5.30;;;3.75;;
12770;SDS011;6449;47.666;9.160;2023-08-17T12:41:47;4.75;;;3.67;;
12770;SDS011;6449;47.666;9.160;2023-08-17T12:46:42;4.90;;;4.30;;
12770;SDS011;6449;47.666;9.160;2023-08-17T12:51:35;7.72;;;4.22;;
12770;SDS011;6449;47.666;9.160;2023-08-17T12:56:36;4.60;;;4.20;;
12770;SDS011;6449;47.666;9.160;2023-08-17T13:01:29;4.95;;;4.43;;
12770;SDS011;6449;47.666;9.160;2023-08-17T13:06:24;4.40;;;3.88;;
12770;SDS011;6449;47.666;9.160;2023-08-17T13:11:37;4.20;;;3.80;;
12770;SDS011;6449;47.666;9.160;2023-08-17T13:16:32;4.35;;;3.95;;
12770;SDS011;6449;47.666;9.160;2023-08-17T13:21:27;6.05;;;3.92;;
12770;SDS011;6449;47.666;9.160;2023-08-17T13:26:21;5.65;;;4.00;;
12770;SDS011;6449;47.666;9.160;2023-08-17T13:31:14;5.05;;;3.90;;
12770;SDS011;6449;47.666;9.160;2023-08-17T13:36:15;4.13;;;3.15;;
12770;SDS011;6449;47.666;9.160;2023-08-17T13:41:10;2.97;;;2.65;;
12770;SDS011;6449;47.666;9.160;2023-08-17T13:46:04;3.40;;;2.78;;
12770;SDS011;6449;47.666;9.160;2023-08-17T13:50:57;8.02;;;3.38;;
12770;SDS011;6449;47.666;9.160;2023-08-17T13:55:51;4.47;;;2.67;;
12770;SDS011;6449;47.666;9.160;2023-08-17T14:00:45;3.97;;;2.15;;
12770;SDS011;6449;47.666;9.160;2023-08-17T14:05:39;3.60;;;2.00;;
12770;SDS011;6449;47.666;9.160;2023-08-17T14:10:32;2.72;;;2.33;;
12770;SDS011;6449;47.666;9.160;2023-08-17T14:15:30;2.83;;;2.13;;
12770;SDS011;6449;47.666;9.160;2023-08-17T14:20:25;3.45;;;2.40;;
12770;SDS011;6449;47.666;9.160;2023-08-17T14:25:19;3.35;;;2.38;;
12770;SDS011;6449;47.666;9.160;2023-08-17T14:30:12;3.55;;;2.55;;
12770;SDS011;6449;47.666;9.160;2023-08-17T14:35:06;4.38;;;2.40;;
12770;SDS011;6449;47.666;9.160;2023-08-17T14:40:05;6.10;;;2.70;;
12770;SDS011;6449;47.666;9.160;2023-08-17T14:45:00;3.88;;;2.70;;
12770;SDS011;6449;47.666;9.160;2023-08-17T14:49:58;6.03;;;2.55;;
12770;SDS011;6449;47.666;9.160;2023-08-17T14:54:51;3.85;;;2.28;;
12770;SDS011;6449;47.666;9.160;2023-08-17T14:59:46;2.53;;;2.17;;
12770;SDS011;6449;47.666;9.160;2023-08-17T15:04:39;2.70;;;2.20;;
12770;SDS011;6449;47.666;9.160;2023-08-17T15:09:33;7.28;;;2.20;;
12770;SDS011;6449;47.666;9.160;2023-08-17T15:14:26;4.03;;;3.25;;
12770;SDS011;6449;47.666;9.160;2023-08-17T15:19:21;5.35;;;3.40;;
12770;SDS011;6449;47.666;9.160;2023-08-17T15:24:29;3.95;;;3.47;;
12770;SDS011;6449;47.666;9.160;2023-08-17T15:29:23;4.18;;;3.78;;
12770;SDS011;6449;47.666;9.160;2023-08-17T15:34:16;4.95;;;3.70;;
12770;SDS011;6449;47.666;9.160;2023-08-17T15:39:11;3.80;;;3.45;;
12770;SDS011;6449;47.666;9.160;2023-08-17T15:44:04;4.35;;;3.88;;
12770;SDS011;6449;47.666;9.160;2023-08-17T15:48:58;5.03;;;3.90;;
12770;SDS011;6449;47.666;9.160;2023-08-17T15:53:52;3.92;;;3.45;;
12770;SDS011;6449;47.666;9.160;2023-08-17T15:58:46;4.53;;;4.13;;
12770;SDS011;6449;47.666;9.160;2023-08-17T16:03:40;5.57;;;4.07;;
12770;SDS011;6449;47.666;9.160;2023-08-17T16:08:34;3.90;;;3.53;;
12770;SDS011;6449;47.666;9.160;2023-08-17T16:13:31;4.28;;;3.60;;
12770;SDS011;6449;47.666;9.160;2023-08-17T16:18:26;4.47;;;3.47;;
12770;SDS011;6449;47.666;9.160;2023-08-17T16:23:20;4.70;;;3.25;;
12770;SDS011;6449;47.666;9.160;2023-08-17T16:28:13;4.47;;;3.63;;
12770;SDS011;6449;47.666;9.160;2023-08-17T16:33:07;3.67;;;3.38;;
12770;SDS011;6449;47.666;9.160;2023-08-17T16:38:07;4.30;;;2.92;;
12770;SDS011;6449;47.666;9.160;2023-08-17T16:43:01;4.43;;;3.53;;
12770;SDS011;6449;47.666;9.160;2023-08-17T16:47:54;2.88;;;1.85;;
12770;SDS011;6449;47.666;9.160;2023-08-17T16:52:47;4.00;;;2.40;;
12770;SDS011;6449;47.666;9.160;2023-08-17T16:57:43;2.47;;;1.63;;
12770;SDS011;6449;47.666;9.160;2023-08-17T17:02:37;2.65;;;1.58;;
12770;SDS011;6449;47.666;9.160;2023-08-17T17:07:30;1.90;;;1.65;;
12770;SDS011;6449;47.666;9.160;2023-08-17T17:12:24;2.45;;;1.35;;
12770;SDS011;6449;47.666;9.160;2023-08-17T17:17:18;4.60;;;1.60;;
12770;SDS011;6449;47.666;9.160;2023-08-17T17:22:12;4.55;;;1.83;;
12770;SDS011;6449;47.666;9.160;2023-08-17T17:27:05;1.67;;;1.30;;
12770;SDS011;6449;47.666;9.160;2023-08-17T17:31:59;2.00;;;1.33;;
12770;SDS011;6449;47.666;9.160;2023-08-17T17:36:53;4.55;;;1.58;;
12770;SDS011;6449;47.666;9.160;2023-08-17T17:41:47;3.35;;;2.00;;
12770;SDS011;6449;47.666;9.160;2023-08-17T17:46:40;3.92;;;1.98;;
12770;SDS011;6449;47.666;9.160;2023-08-17T17:51:34;4.95;;;1.92;;
12770;SDS011;6449;47.666;9.160;2023-08-17T17:56:38;2.88;;;2.10;;
12770;SDS011;6449;47.666;9.160;2023-08-17T18:01:32;4.18;;;2.90;;
12770;SDS011;6449;47.666;9.160;2023-08-17T18:06:26;3.35;;;2.00;;
12770;SDS011;6449;47.666;9.160;2023-08-17T18:11:20;2.53;;;2.00;;
12770;SDS011;6449;47.666;9.160;2023-08-17T18:16:15;2.15;;;1.98;;
12770;SDS011;6449;47.666;9.160;2023-08-17T18:21:08;3.45;;;1.95;;
12770;SDS011;6449;47.666;9.160;2023-08-17T18:26:01;3.42;;;2.08;;
12770;SDS011;6449;47.666;9.160;2023-08-17T18:30:55;2.47;;;2.13;;
12770;SDS011;6449;47.666;9.160;2023-08-17T18:35:50;6.15;;;2.50;;
12770;SDS011;6449;47.666;9.160;2023-08-17T18:40:45;4.18;;;2.63;;
12770;SDS011;6449;47.666;9.160;2023-08-17T18:45:38;4.68;;;2.40;;
12770;SDS011;6449;47.666;9.160;2023-08-17T18:50:32;2.33;;;2.00;;
12770;SDS011;6449;47.666;9.160;2023-08-17T18:55:27;2.13;;;1.90;;
12770;SDS011;6449;47.666;9.160;2023-08-17T19:00:21;2.30;;;1.98;;
12770;SDS011;6449;47.666;9.160;2023-08-17T19:05:15;4.88;;;2.03;;
12770;SDS011;6449;47.666;9.160;2023-08-17T19:10:12;3.53;;;2.20;;
12770;SDS011;6449;47.666;9.160;2023-08-17T19:15:07;2.63;;;2.10;;
12770;SDS011;6449;47.666;9.160;2023-08-17T19:20:01;5.00;;;2.20;;
12770;SDS011;6449;47.666;9.160;2023-08-17T19:24:57;2.15;;;1.92;;
12770;SDS011;6449;47.666;9.160;2023-08-17T19:29:53;3.10;;;2.10;;
12770;SDS011;6449;47.666;9.160;2023-08-17T19:34:48;2.33;;;2.13;;
12770;SDS011;6449;47.666;9.160;2023-08-17T19:39:41;2.80;;;2.20;;
12770;SDS011;6449;47.666;9.160;2023-08-17T19:44:35;3.15;;;2.10;;
12770;SDS011;6449;47.666;9.160;2023-08-17T19:49:28;3.58;;;2.20;;
12770;SDS011;6449;47.666;9.160;2023-08-17T19:54:26;2.67;;;2.20;;
12770;SDS011;6449;47.666;9.160;2023-08-17T19:59:19;2.75;;;2.53;;
12770;SDS011;6449;47.666;9.160;2023-08-17T20:04:13;2.88;;;2.22;;
12770;SDS011;6449;47.666;9.160;2023-08-17T20:09:09;3.83;;;2.00;;
12770;SDS011;6449;47.666;9.160;2023-08-17T20:14:10;3.10;;;2.10;;
12770;SDS011;6449;47.666;9.160;2023-08-17T20:19:07;2.30;;;2.08;;
12770;SDS011;6449;47.666;9.160;2023-08-17T20:24:01;3.35;;;2.55;;
12770;SDS011;6449;47.666;9.160;2023-08-17T20:28:56;2.75;;;1.98;;
12770;SDS011;6449;47.666;9.160;2023-08-17T20:33:52;5.30;;;2.17;;
12770;SDS011;6449;47.666;9.160;2023-08-17T20:38:47;2.53;;;1.92;;
12770;SDS011;6449;47.666;9.160;2023-08-17T20:43:43;2.72;;;2.10;;
12770;SDS011;6449;47.666;9.160;2023-08-17T20:48:37;2.28;;;1.90;;
12770;SDS011;6449;47.666;9.160;2023-08-17T20:53:32;3.35;;;1.90;;
12770;SDS011;6449;47.666;9.160;2023-08-17T20:58:27;2.78;;;1.80;;
12770;SDS011;6449;47.666;9.160;2023-08-17T21:03:24;2.40;;;1.70;;
12770;SDS011;6449;47.666;9.160;2023-08-17T21:08:20;3.15;;;1.77;;
12770;SDS011;6449;47.666;9.160;2023-08-17T21:13:15;3.47;;;1.98;;
12770;SDS011;6449;47.666;9.160;2023-08-17T21:18:11;2.08;;;1.70;;
12770;SDS011;6449;47.666;9.160;2023-08-17T21:23:04;2.95;;;2.03;;
12770;SDS011;6449;47.666;9.160;2023-08-17T21:28:00;1.77;;;1.67;;
12770;SDS011;6449;47.666;9.160;2023-08-17T21:32:55;2.70;;;1.70;;
12770;SDS011;6449;47.666;9.160;2023-08-17T21:37:49;2.60;;;2.00;;
12770;SDS011;6449;47.666;9.160;2023-08-17T21:42:45;3.28;;;1.92;;
12770;SDS011;6449;47.666;9.160;2023-08-17T21:47:38;2.28;;;1.85;;
12770;SDS011;6449;47.666;9.160;2023-08-17T21:52:33;1.75;;;1.65;;
12770;SDS011;6449;47.666;9.160;2023-08-17T21:57:27;2.40;;;1.63;;
12770;SDS011;6449;47.666;9.160;2023-08-17T22:02:20;3.03;;;1.60;;
12770;SDS011;6449;47.666;9.160;2023-08-17T22:07:14;3.58;;;1.65;;
12770;SDS011;6449;47.666;9.160;2023-08-17T22:12:09;3.63;;;1.95;;
12770;SDS011;6449;47.666;9.160;2023-08-17T22:17:02;2.85;;;1.98;;
12770;SDS011;6449;47.666;9.160;2023-08-17T22:21:55;2.08;;;1.88;;
12770;SDS011;6449;47.666;9.160;2023-08-17T22:26:49;2.00;;;1.80;;
12770;SDS011;6449;47.666;9.160;2023-08-17T22:31:44;2.65;;;2.15;;
12770;SDS011;6449;47.666;9.160;2023-08-17T22:36:37;2.53;;;2.00;;
12770;SDS011;6449;47.666;9.160;2023-08-17T22:41:30;2.47;;;1.92;;
12770;SDS011;6449;47.666;9.160;2023-08-17T22:46:24;2.10;;;1.90;;
12770;SDS011;6449;47.666;9.160;2023-08-17T22:51:19;3.15;;;2.00;;
12770;SDS011;6449;47.666;9.160;2023-08-17T22:56:12;3.63;;;2.00;;
12770;SDS011;6449;47.666;9.160;2023-08-17T23:01:05;2.50;;;2.30;;
12770;SDS011;6449;47.666;9.160;2023-08-17T23:05:59;2.22;;;2.03;;
12770;SDS011;6449;47.666;9.160;2023-08-17T23:10:57;3.45;;;2.17;;
12770;SDS011;6449;47.666;9.160;2023-08-17T23:15:52;3.60;;;2.80;;
12770;SDS011;6449;47.666;9.160;2023-08-17T23:20:45;3.42;;;2.50;;
12770;SDS011;6449;47.666;9.160;2023-08-17T23:25:39;3.55;;;2.40;;
12770;SDS011;6449;47.666;9.160;2023-08-17T23:30:34;2.20;;;2.00;;
12770;SDS011;6449;47.666;9.160;2023-08-17T23:35:30;3.95;;;2.22;;
12770;SDS011;6449;47.666;9.160;2023-08-17T23:40:23;2.85;;;2.10;;
12770;SDS011;6449;47.666;9.160;2023-08-17T23:45:17;4.97;;;2.08;;
12770;SDS011;6449;47.666;9.160;2023-08-17T23:50:13;3.15;;;2.10;;
12770;SDS011;6449;47.666;9.160;2023-08-17T23:55:06;5.95;;;2.63;;
